createdAt,value
2018-07-28T00:03:53.400Z,4.60
2018-07-28T00:08:56.014Z,5.00
2018-07-28T00:13:58.801Z,5.07
2018-07-28T00:19:01.472Z,4.60
2018-07-28T00:24:04.155Z,4.20
2018-07-28T00:29:06.806Z,4.87
2018-07-28T00:34:09.445Z,5.10
2018-07-28T00:39:13.623Z,4.53
2018-07-28T00:44:16.299Z,4.47
2018-07-28T00:49:18.934Z,4.50
2018-07-28T00:54:21.582Z,4.40
2018-07-28T00:59:24.193Z,4.70
2018-07-28T01:04:26.864Z,4.60
2018-07-28T01:09:29.527Z,4.93
2018-07-28T01:14:32.186Z,4.70
2018-07-28T01:19:34.808Z,4.70
2018-07-28T01:24:37.421Z,4.97
2018-07-28T01:29:40.085Z,5.40
2018-07-28T01:34:42.687Z,5.50
2018-07-28T01:39:45.309Z,5.37
2018-07-28T01:44:47.918Z,5.33
2018-07-28T01:49:50.522Z,5.37
2018-07-28T01:54:53.243Z,5.67
2018-07-28T01:59:55.838Z,5.30
2018-07-28T02:04:58.448Z,5.20
2018-07-28T02:10:01.130Z,5.00
2018-07-28T02:15:04.730Z,5.37
2018-07-28T02:20:08.007Z,5.10
2018-07-28T02:25:10.902Z,4.93
2018-07-28T02:30:13.499Z,5.20
2018-07-28T02:35:16.116Z,5.03
2018-07-28T02:40:18.723Z,5.20
2018-07-28T02:45:21.703Z,5.23
2018-07-28T02:50:24.339Z,5.67
2018-07-28T02:55:26.968Z,6.10
2018-07-28T03:00:29.609Z,6.00
2018-07-28T03:05:32.199Z,5.67
2018-07-28T03:10:34.778Z,6.17
2018-07-28T03:15:37.386Z,5.90
2018-07-28T03:20:40.008Z,5.93
2018-07-28T03:25:42.602Z,5.40
2018-07-28T03:30:45.164Z,5.60
2018-07-28T03:35:47.843Z,5.97
2018-07-28T03:40:50.402Z,5.97
2018-07-28T03:45:53.053Z,5.37
2018-07-28T03:50:56.588Z,6.37
2018-07-28T03:55:59.373Z,5.80
2018-07-28T04:01:01.992Z,5.43
2018-07-28T04:06:04.562Z,5.07
2018-07-28T04:11:07.163Z,4.90
2018-07-28T04:16:09.850Z,5.77
2018-07-28T04:21:12.483Z,4.97
2018-07-28T04:26:15.043Z,5.10
2018-07-28T04:31:17.652Z,4.87
2018-07-28T04:36:20.287Z,5.43
2018-07-28T04:41:22.918Z,5.40
2018-07-28T04:46:25.494Z,4.70
2018-07-28T04:51:28.158Z,4.17
2018-07-28T04:56:30.779Z,4.30
2018-07-28T05:01:33.446Z,4.20
2018-07-28T05:06:36.025Z,5.23
2018-07-28T05:11:38.723Z,5.57
2018-07-28T05:16:41.319Z,5.60
2018-07-28T05:21:43.875Z,6.57
2018-07-28T05:26:46.442Z,7.60
2018-07-28T05:31:49.054Z,6.77
2018-07-28T05:36:51.711Z,6.40
2018-07-28T05:41:54.306Z,7.37
2018-07-28T05:46:56.883Z,7.60
2018-07-28T05:51:59.510Z,6.47
2018-07-28T05:57:02.103Z,6.37
2018-07-28T06:02:04.820Z,5.93
2018-07-28T06:07:07.482Z,5.33
2018-07-28T06:12:10.102Z,5.93
2018-07-28T06:17:12.686Z,5.47
2018-07-28T06:22:15.275Z,4.63
2018-07-28T06:27:17.838Z,5.17
2018-07-28T06:32:20.518Z,5.17
2018-07-28T06:37:23.114Z,4.30
2018-07-28T06:42:25.743Z,4.40
2018-07-28T06:47:28.345Z,4.33
2018-07-28T06:52:30.990Z,5.53
2018-07-28T06:57:34.059Z,5.50
2018-07-28T07:02:36.771Z,7.30
2018-07-28T07:07:39.386Z,5.60
2018-07-28T07:12:41.999Z,5.07
2018-07-28T07:17:44.588Z,5.03
2018-07-28T07:22:47.187Z,5.20
2018-07-28T07:27:49.804Z,5.13
2018-07-28T07:32:52.413Z,4.60
2018-07-28T07:37:55.026Z,5.00
2018-07-28T07:42:57.598Z,4.90
2018-07-28T07:48:00.171Z,4.80
2018-07-28T07:53:02.738Z,5.00
2018-07-28T07:58:05.362Z,4.87
2018-07-28T08:03:07.962Z,5.13
2018-07-28T08:08:10.580Z,4.80
2018-07-28T08:13:14.039Z,4.73
2018-07-28T08:18:16.595Z,5.73
2018-07-28T08:23:19.187Z,5.93
2018-07-28T08:28:21.823Z,5.63
2018-07-28T08:33:24.461Z,5.80
2018-07-28T08:38:27.016Z,7.17
2018-07-28T08:43:29.594Z,6.40
2018-07-28T08:48:32.175Z,6.97
2018-07-28T08:53:34.785Z,6.23
2018-07-28T08:58:37.405Z,6.33
2018-07-28T09:03:40.101Z,6.00
2018-07-28T09:08:42.690Z,6.63
2018-07-28T09:13:45.279Z,6.93
2018-07-28T09:18:47.877Z,6.10
2018-07-28T09:23:50.430Z,5.90
2018-07-28T09:28:53.085Z,6.20
2018-07-28T09:33:55.719Z,6.37
2018-07-28T09:38:58.321Z,6.20
2018-07-28T09:44:00.914Z,5.90
2018-07-28T09:49:03.554Z,5.40
2018-07-28T09:54:06.207Z,6.03
2018-07-28T09:59:08.863Z,6.00
2018-07-28T10:04:11.543Z,5.20
2018-07-28T10:09:14.158Z,4.47
2018-07-28T10:14:16.749Z,4.70
2018-07-28T10:19:19.340Z,4.30
2018-07-28T10:24:21.956Z,4.72
2018-07-28T10:29:24.520Z,4.47
2018-07-28T10:34:27.150Z,4.17
2018-07-28T10:39:29.758Z,4.10
2018-07-28T10:44:32.396Z,4.17
2018-07-28T10:49:34.995Z,3.70
2018-07-28T10:54:37.657Z,3.70
2018-07-28T10:59:40.249Z,3.97
2018-07-28T11:04:42.850Z,3.80
2018-07-28T11:09:45.519Z,3.30
2018-07-28T11:14:48.132Z,2.90
2018-07-28T11:19:50.763Z,2.73
2018-07-28T11:24:53.318Z,3.20
2018-07-28T11:29:55.918Z,2.53
2018-07-28T11:35:09.695Z,2.50
2018-07-28T11:40:23.474Z,2.40
2018-07-28T11:45:26.143Z,2.70
2018-07-28T11:50:28.753Z,2.58
2018-07-28T11:55:31.356Z,2.40
2018-07-28T12:00:33.957Z,2.50
2018-07-28T12:05:36.626Z,2.50
2018-07-28T12:10:39.150Z,2.30
2018-07-28T12:15:41.852Z,2.40
2018-07-28T12:20:44.511Z,2.55
2018-07-28T12:25:47.128Z,2.67
2018-07-28T12:30:49.709Z,2.33
2018-07-28T12:35:52.907Z,2.27
2018-07-28T12:40:55.494Z,2.55
2018-07-28T12:45:58.200Z,3.20
2018-07-28T12:51:00.862Z,3.35
2018-07-28T12:56:03.520Z,3.17
2018-07-28T13:01:06.117Z,3.27
2018-07-28T13:06:08.744Z,3.52
2018-07-28T13:11:11.434Z,3.55
2018-07-28T13:16:14.015Z,3.80
2018-07-28T13:21:16.611Z,3.93
2018-07-28T13:26:19.206Z,4.20
2018-07-28T13:31:21.827Z,4.40
2018-07-28T13:36:24.406Z,4.43
2018-07-28T13:41:26.988Z,3.97
2018-07-28T13:46:29.610Z,4.40
2018-07-28T13:51:32.239Z,4.10
2018-07-28T13:56:34.811Z,4.80
2018-07-28T14:01:37.397Z,4.80
2018-07-28T14:06:42.023Z,4.67
2018-07-28T14:11:44.598Z,4.73
2018-07-28T14:16:47.212Z,4.67
2018-07-28T14:21:49.823Z,4.40
2018-07-28T14:26:52.399Z,4.40
2018-07-28T14:31:54.990Z,4.67
2018-07-28T14:36:57.626Z,3.93
2018-07-28T14:42:00.215Z,4.10
2018-07-28T14:47:02.859Z,4.27
2018-07-28T14:52:05.422Z,3.93
2018-07-28T14:57:08.039Z,4.30
2018-07-28T15:02:10.669Z,4.50
2018-07-28T15:07:13.334Z,3.80
2018-07-28T15:12:15.920Z,4.47
2018-07-28T15:17:18.499Z,4.57
2018-07-28T15:22:21.138Z,4.70
2018-07-28T15:27:23.795Z,4.77
2018-07-28T15:32:26.433Z,4.80
2018-07-28T15:37:29.022Z,4.57
2018-07-28T15:42:31.589Z,4.77
2018-07-28T15:47:34.186Z,5.23
2018-07-28T15:52:36.772Z,5.40
2018-07-28T15:57:39.358Z,4.83
2018-07-28T16:02:42.875Z,5.30
2018-07-28T16:07:45.530Z,5.30
2018-07-28T16:12:48.139Z,5.37
2018-07-28T16:17:50.742Z,5.20
2018-07-28T16:22:53.416Z,5.40
2018-07-28T16:27:56.019Z,5.40
2018-07-28T16:32:58.610Z,5.40
2018-07-28T16:38:01.289Z,5.80
2018-07-28T16:43:04.045Z,5.60
2018-07-28T16:48:06.644Z,5.70
2018-07-28T16:53:09.187Z,5.70
2018-07-28T16:58:11.750Z,6.00
2018-07-28T17:03:14.336Z,6.07
2018-07-28T17:08:16.997Z,6.00
2018-07-28T17:13:19.591Z,5.93
2018-07-28T17:18:22.602Z,5.60
2018-07-28T17:23:25.184Z,6.30
2018-07-28T17:28:27.755Z,7.03
2018-07-28T17:33:30.351Z,6.03
2018-07-28T17:38:32.950Z,5.80
2018-07-28T17:43:35.559Z,6.70
2018-07-28T17:48:38.179Z,6.50
2018-07-28T17:53:42.815Z,6.87
2018-07-28T17:58:45.454Z,6.90
2018-07-28T18:03:48.098Z,6.30
2018-07-28T18:08:50.762Z,7.33
2018-07-28T18:13:53.398Z,7.20
2018-07-28T18:18:55.947Z,6.40
2018-07-28T18:23:58.611Z,6.93
2018-07-28T18:29:01.179Z,7.43
2018-07-28T18:34:03.793Z,6.00
2018-07-28T18:39:08.059Z,6.00
2018-07-28T18:44:10.679Z,6.63
2018-07-28T18:49:13.318Z,6.80
2018-07-28T18:54:15.922Z,7.07
2018-07-28T18:59:18.524Z,7.00
2018-07-28T19:04:31.497Z,6.53
2018-07-28T19:09:50.807Z,6.20
2018-07-28T19:14:53.528Z,6.43
2018-07-28T19:19:56.144Z,6.20
2018-07-28T19:24:58.780Z,5.90
2018-07-28T19:30:01.377Z,6.37
2018-07-28T19:35:03.992Z,6.27
2018-07-28T19:40:06.593Z,6.20
2018-07-28T19:45:09.180Z,6.07
2018-07-28T19:50:11.779Z,6.07
2018-07-28T19:55:14.371Z,6.03
2018-07-28T20:00:16.991Z,5.70
2018-07-28T20:05:19.583Z,6.07
2018-07-28T20:10:22.316Z,6.17
2018-07-28T20:15:24.889Z,6.07
2018-07-28T20:20:27.499Z,5.73
2018-07-28T20:25:30.117Z,6.50
2018-07-28T20:30:32.687Z,5.93
2018-07-28T20:35:35.275Z,5.73
2018-07-28T20:40:37.932Z,5.27
2018-07-28T20:45:40.514Z,5.40
2018-07-28T20:50:45.960Z,5.50
2018-07-28T20:55:49.218Z,5.70
2018-07-28T21:00:51.978Z,6.23
2018-07-28T21:05:54.567Z,5.83
2018-07-28T21:10:57.274Z,5.60
2018-07-28T21:15:59.866Z,6.47
2018-07-28T21:21:02.583Z,5.77
2018-07-28T21:26:05.604Z,6.70
2018-07-28T21:31:08.192Z,6.37
2018-07-28T21:36:10.764Z,5.87
2018-07-28T21:41:13.586Z,6.37
2018-07-28T21:46:16.173Z,5.80
2018-07-28T21:51:18.902Z,6.10
2018-07-28T21:56:23.894Z,6.87
2018-07-28T22:01:26.512Z,6.97
2018-07-28T22:06:29.831Z,6.20
2018-07-28T22:11:32.419Z,6.67
2018-07-28T22:16:35.004Z,6.40
2018-07-28T22:21:37.601Z,6.40
2018-07-28T22:26:40.182Z,7.10
2018-07-28T22:31:42.856Z,7.00
2018-07-28T22:36:45.466Z,6.63
2018-07-28T22:41:48.099Z,6.67
2018-07-28T22:46:50.671Z,6.90
2018-07-28T22:51:53.241Z,6.57
2018-07-28T22:56:55.836Z,7.17
2018-07-28T23:01:58.399Z,6.53
2018-07-28T23:07:01.030Z,7.00
2018-07-28T23:12:03.649Z,6.63
2018-07-28T23:17:08.594Z,7.07
2018-07-28T23:22:11.391Z,7.27
2018-07-28T23:27:14.012Z,7.10
2018-07-28T23:32:16.598Z,6.60
2018-07-28T23:37:19.426Z,6.90
2018-07-28T23:42:22.039Z,6.80
2018-07-28T23:47:24.657Z,7.07
2018-07-28T23:52:27.262Z,6.73
2018-07-28T23:57:29.831Z,7.60
